Archival Weather

Bridgeport/Sikorsky

Bridgeport, Connecticut (KBDR)

Report from: Friday, February 23, 2024 4:48 AM EST
Current time: Wednesday, May 29, 2024 8:56 PM EDT

Current weather – Weather history – Daily summaries
Weather forecast

Temperature4.0°C (39.2°F)
Wind chill0.6°C (33.0°F)
Dew point3.0°C (37.4°F)
Winds 8 kts (4.1 m/s, 9.2 mph) East-Northeast (60°)
Visibility10 mi. (16.1 km)
Clouds Scattered clouds 900 ft. (274 m)
Ceiling: Broken clouds 7,000 ft. (2,134 m)
Overcast 11,000 ft. (3,353 m)
Altimeter29.56 in.Hg (1001 mB)
PrecipitiationTrace
Precip. events Rain ended 8:57 AM
Relative humidity93 %
Density altitude-802 ft. (-244 m)
Remarks Fully automated report
Special weather observation
Automated weather observing station with precipitation discriminator
Flight conditions Visual Meteorological Conditions
Raw dataSPUS80 KWBC 230952 SPECI KBDR 230948Z AUTO 06008KT 10SM SCT009 BKN070 OVC110 04/03 A2956 RMK AO2 RAE0857 P0000
An error has occurred. This application may no longer respond until reloaded. Reload 🗙